Report METAR

 

LIMJ -
Dati ricevuti: 14/06/2021 11:20
Parz. nuvoloso
Parz. nuvoloso
 Vento da S
Vento: S 7 km/h
Temperatura: 23°C
P.to Rugiada: 22°C
Umidità: 94%
Barometro: 1017 hPa
Nuvole: Parz. nuvoloso
Visibility: 9 km
2021/06/14 09:20 LIMJ 140920Z 19004KT 9000 NSC 23/22 Q1017